Time;durP1;ratioP1;P1;durP2;ratioP2;P2;SDS_P1;SDS_P2;PMS_P1;PMS_P2;Temp;Humidity;BMP_temperature;BMP_pressure;BME280_temperature;BME280_humidity;BME280_pressure;Samples;Min_cycle;Max_cycle;Signal;HPM_P1;HPM_P2
2023/02/03 00:04:53;;;;;;;10.1;4.9;;;;;;;1.1;85.5;99290;;;;
2023/02/03 00:14:53;;;;;;;9.8;5.6;;;;;;;1;85.9;99300;;;;
2023/02/03 00:25:53;;;;;;;9.8;5.6;;;;;;;1;86.1;99310;;;;
2023/02/03 00:35:53;;;;;;;9.8;5.6;;;;;;;1;86.5;99320;;;;
2023/02/03 00:45:53;;;;;;;15.4;9;;;;;;;0.9;86.8;99330;;;;
2023/02/03 00:55:53;;;;;;;15.4;9;;;;;;;1;86.9;99330;;;;
2023/02/03 01:06:56;;;;;;;15.4;9;;;;;;;0.8;86.4;99330;;;;
2023/02/03 01:16:53;;;;;;;10.4;5.9;;;;;;;0.8;86.5;99340;;;;
2023/02/03 01:27:53;;;;;;;10.4;5.9;;;;;;;0.8;86.1;99340;;;;
2023/02/03 01:37:53;;;;;;;13.6;7;;;;;;;0.9;85.6;99350;;;;
2023/02/03 01:48:53;;;;;;;13.6;7;;;;;;;0.9;84.6;99330;;;;
2023/02/03 01:59:53;;;;;;;13.6;7;;;;;;;0.7;83.9;99330;;;;
2023/02/03 02:10:53;;;;;;;11.6;6.1;;;;;;;0.8;83.6;99320;;;;
2023/02/03 02:20:52;;;;;;;11.6;6.1;;;;;;;0.7;83.4;99310;;;;
2023/02/03 02:31:53;;;;;;;11.6;6.1;;;;;;;0.6;83.1;99310;;;;
2023/02/03 02:41:52;;;;;;;9.7;5;;;;;;;0.5;83.3;99310;;;;
2023/02/03 02:52:53;;;;;;;9.7;5;;;;;;;0.4;83.1;99330;;;;
2023/02/03 03:02:53;;;;;;;9.7;5;;;;;;;0.4;83;99310;;;;
2023/02/03 03:13:53;;;;;;;10.7;5.6;;;;;;;0.3;82.8;99280;;;;
2023/02/03 03:24:52;;;;;;;10.7;5.6;;;;;;;0;82.3;99260;;;;
2023/02/03 03:34:52;;;;;;;10.7;5.6;;;;;;;0.1;82.9;99280;;;;
2023/02/03 03:44:53;;;;;;;8.4;4.4;;;;;;;0;82.8;99300;;;;
2023/02/03 03:55:53;;;;;;;8.4;4.4;;;;;;;-0.2;82.5;99300;;;;
2023/02/03 04:05:53;;;;;;;8.4;4.4;;;;;;;-0.3;82.8;99270;;;;
2023/02/03 04:16:52;;;;;;;8.1;3.8;;;;;;;-0.5;83;99250;;;;
2023/02/03 04:27:52;;;;;;;8.1;3.8;;;;;;;-0.5;83.1;99240;;;;
2023/02/03 04:37:52;;;;;;;6.7;3.7;;;;;;;-0.6;83.1;99250;;;;
2023/02/03 04:47:53;;;;;;;6.7;3.7;;;;;;;-0.6;83.1;99240;;;;
2023/02/03 04:58:53;;;;;;;6.7;3.7;;;;;;;-0.7;83.2;99220;;;;
2023/02/03 05:09:52;;;;;;;9.6;4.8;;;;;;;-0.6;83.2;99230;;;;
2023/02/03 05:19:52;;;;;;;9.6;4.8;;;;;;;-0.6;83.1;99230;;;;
2023/02/03 05:30:52;;;;;;;9.6;4.8;;;;;;;-0.7;83.2;99210;;;;
2023/02/03 05:41:52;;;;;;;8.8;5.2;;;;;;;-0.7;83.1;99190;;;;
2023/02/03 05:51:52;;;;;;;8.8;5.2;;;;;;;-0.6;83.1;99180;;;;
2023/02/03 06:02:52;;;;;;;8.8;5.2;;;;;;;-0.6;83.2;99170;;;;
2023/02/03 06:12:52;;;;;;;7.6;4.1;;;;;;;-0.6;82.8;99160;;;;
2023/02/03 06:23:53;;;;;;;7.6;4.1;;;;;;;-0.6;82.5;99130;;;;
2023/02/03 06:34:52;;;;;;;7.6;4.1;;;;;;;-0.5;82;99110;;;;
2023/02/03 06:44:53;;;;;;;8.9;4.9;;;;;;;-0.6;81.4;99100;;;;
2023/02/03 06:54:52;;;;;;;8.9;4.9;;;;;;;-0.4;80.7;99090;;;;
2023/02/03 07:05:52;;;;;;;8.9;4.9;;;;;;;-0.3;79;99090;;;;
2023/02/03 07:15:52;;;;;;;6.6;3.9;;;;;;;-0.1;78.7;99070;;;;
2023/02/03 07:25:52;;;;;;;6.6;3.9;;;;;;;0.1;77.7;99050;;;;
2023/02/03 07:35:52;;;;;;;6.6;3.9;;;;;;;0.4;76.9;99050;;;;
2023/02/03 07:45:52;;;;;;;5;2.6;;;;;;;0.6;75.9;99030;;;;
2023/02/03 07:55:52;;;;;;;5;2.6;;;;;;;0.6;73.8;99010;;;;
2023/02/03 08:05:52;;;;;;;5;2.6;;;;;;;0.8;73.9;98990;;;;
2023/02/03 08:16:52;;;;;;;5.9;3;;;;;;;0.9;72.7;98980;;;;
2023/02/03 08:27:52;;;;;;;5.9;3;;;;;;;0.9;72.2;98960;;;;
2023/02/03 08:37:52;;;;;;;5.4;2.9;;;;;;;1.1;70.5;98940;;;;
2023/02/03 08:48:55;;;;;;;5.4;2.9;;;;;;;1.3;70;98920;;;;
2023/02/03 08:59:53;;;;;;;5.4;2.9;;;;;;;1.5;67.2;98900;;;;
2023/02/03 09:09:52;;;;;;;5.2;3.3;;;;;;;1.6;68.5;98890;;;;
2023/02/03 09:20:52;;;;;;;5.2;3.3;;;;;;;1.9;64.9;98880;;;;
2023/02/03 09:30:52;;;;;;;5.2;3.3;;;;;;;2.3;64.2;98870;;;;
2023/02/03 09:40:52;;;;;;;5.4;2.8;;;;;;;2.7;64.2;98860;;;;
2023/02/03 09:51:52;;;;;;;5.4;2.8;;;;;;;2.6;64.6;98830;;;;
2023/02/03 10:01:52;;;;;;;5.4;2.8;;;;;;;2.6;65.1;98810;;;;
2023/02/03 10:12:52;;;;;;;5.9;2.4;;;;;;;2.8;68.4;98780;;;;
2023/02/03 10:22:52;;;;;;;5.9;2.4;;;;;;;2.4;72.5;98740;;;;
2023/02/03 10:32:52;;;;;;;5.9;2.4;;;;;;;2.5;74.8;98710;;;;
2023/02/03 10:43:52;;;;;;;5.2;2.8;;;;;;;2.6;75.9;98670;;;;
2023/02/03 10:54:52;;;;;;;5.2;2.8;;;;;;;2.5;77.7;98620;;;;
2023/02/03 11:04:52;;;;;;;5.2;2.8;;;;;;;2.4;79.6;98590;;;;
2023/02/03 11:14:52;;;;;;;5;2.9;;;;;;;2.4;79.6;98550;;;;
2023/02/03 11:25:52;;;;;;;5;2.9;;;;;;;2.6;79.1;98520;;;;
2023/02/03 11:36:52;;;;;;;5.4;2.7;;;;;;;2.3;80.4;98480;;;;
2023/02/03 11:46:52;;;;;;;5.4;2.7;;;;;;;2.2;81.5;98450;;;;
2023/02/03 11:56:52;;;;;;;5.4;2.7;;;;;;;2.1;82.6;98400;;;;
2023/02/03 12:06:52;;;;;;;7.9;4.1;;;;;;;1.8;84.7;98350;;;;
2023/02/03 12:17:52;;;;;;;7.9;4.1;;;;;;;1.5;87.1;98320;;;;
2023/02/03 12:27:52;;;;;;;7.9;4.1;;;;;;;1.6;87.9;98290;;;;
2023/02/03 12:37:52;;;;;;;7.3;3.5;;;;;;;1.6;88.6;98260;;;;
2023/02/03 12:47:52;;;;;;;7.3;3.5;;;;;;;1.6;88.8;98230;;;;
2023/02/03 12:58:52;;;;;;;7.3;3.5;;;;;;;1.6;89.3;98190;;;;
2023/02/03 13:09:52;;;;;;;5.2;2.8;;;;;;;1.5;89.7;98160;;;;
2023/02/03 13:19:52;;;;;;;5.2;2.8;;;;;;;1.6;89.8;98130;;;;
2023/02/03 13:29:52;;;;;;;5.2;2.8;;;;;;;1.5;89.8;98110;;;;
2023/02/03 13:40:52;;;;;;;4.5;2.1;;;;;;;1.5;90.2;98080;;;;
2023/02/03 13:51:52;;;;;;;4.5;2.1;;;;;;;1.5;90.4;98050;;;;
2023/02/03 14:01:52;;;;;;;4.5;2.1;;;;;;;1.5;90.7;98030;;;;
2023/02/03 14:11:52;;;;;;;4.6;2.8;;;;;;;1.4;91;98000;;;;
2023/02/03 14:21:52;;;;;;;4.6;2.8;;;;;;;1.4;91.3;97970;;;;
2023/02/03 14:32:52;;;;;;;4.6;2.8;;;;;;;1.2;91.7;97940;;;;
2023/02/03 14:43:52;;;;;;;5.1;3.1;;;;;;;1.2;92.1;97910;;;;
2023/02/03 14:53:52;;;;;;;5.1;3.1;;;;;;;1.3;92.2;97890;;;;
2023/02/03 15:03:52;;;;;;;5.1;3.1;;;;;;;1.4;92.2;97880;;;;
2023/02/03 15:13:52;;;;;;;4.5;2.3;;;;;;;1.5;92;97870;;;;
2023/02/03 15:23:52;;;;;;;4.5;2.3;;;;;;;1.6;91.9;97860;;;;
2023/02/03 15:33:52;;;;;;;4.5;2.3;;;;;;;1.6;91.6;97880;;;;
2023/02/03 15:44:52;;;;;;;6;3;;;;;;;1.8;91.6;97890;;;;
2023/02/03 15:55:52;;;;;;;6;3;;;;;;;2;91.7;97910;;;;
2023/02/03 16:06:52;;;;;;;8.5;5;;;;;;;2.1;92;97860;;;;
2023/02/03 16:16:53;;;;;;;8.5;5;;;;;;;2.3;92.2;97860;;;;
2023/02/03 16:58:52;;;;;;;9.2;4.7;;;;;;;3.3;91.2;97860;;;;
2023/02/03 17:08:52;;;;;;;8.7;4;;;;;;;3.3;90.5;97890;;;;
2023/02/03 17:18:52;;;;;;;8.7;4;;;;;;;3.3;90.1;97890;;;;
2023/02/03 17:29:52;;;;;;;8.7;4;;;;;;;3.4;89.5;97900;;;;
2023/02/03 17:39:52;;;;;;;8.7;4.5;;;;;;;3.4;89.3;97930;;;;
2023/02/03 17:49:52;;;;;;;8.7;4.5;;;;;;;3.5;89.3;97940;;;;
2023/02/03 17:59:54;;;;;;;8.7;4.5;;;;;;;3.4;89.4;97960;;;;
2023/02/03 18:09:52;;;;;;;8.3;4.1;;;;;;;3.4;89.9;97970;;;;
2023/02/03 18:19:54;;;;;;;8.3;4.1;;;;;;;3.2;90.5;97940;;;;
2023/02/03 18:29:52;;;;;;;8.3;4.1;;;;;;;3.2;91.1;97970;;;;
2023/02/03 18:39:52;;;;;;;11.6;5.1;;;;;;;3.2;91.1;97970;;;;
2023/02/03 18:50:52;;;;;;;11.6;5.1;;;;;;;3.2;91.1;97980;;;;
2023/02/03 19:00:52;;;;;;;11.6;5.1;;;;;;;3.3;91;97980;;;;
2023/02/03 19:11:52;;;;;;;13.2;5.6;;;;;;;3.3;90.8;97990;;;;
2023/02/03 19:21:52;;;;;;;13.2;5.6;;;;;;;3.4;90.7;98000;;;;
2023/02/03 19:31:52;;;;;;;13.2;5.6;;;;;;;3.3;90.7;98010;;;;
2023/02/03 19:42:52;;;;;;;15.5;8;;;;;;;3.4;90.8;98020;;;;
2023/02/03 19:52:52;;;;;;;15.5;8;;;;;;;3.3;90.8;98020;;;;
2023/02/03 20:03:52;;;;;;;15.5;8;;;;;;;3.3;90.8;98020;;;;
2023/02/03 20:14:52;;;;;;;17.3;8.2;;;;;;;3.2;90.8;98020;;;;
2023/02/03 20:24:52;;;;;;;17.3;8.2;;;;;;;3.1;90.9;98030;;;;
2023/02/03 20:35:52;;;;;;;16.7;6.9;;;;;;;3.1;91.1;98030;;;;
2023/02/03 20:46:52;;;;;;;16.7;6.9;;;;;;;3;90.9;98030;;;;
2023/02/03 20:56:52;;;;;;;16.7;6.9;;;;;;;3;91;98020;;;;
2023/02/03 21:06:54;;;;;;;11.1;5.6;;;;;;;2.9;91.1;98020;;;;
2023/02/03 21:17:52;;;;;;;11.1;5.6;;;;;;;2.8;91.4;98030;;;;
2023/02/03 21:27:52;;;;;;;11.1;5.6;;;;;;;2.7;91.9;98020;;;;
2023/02/03 21:38:53;;;;;;;10.1;5;;;;;;;2.7;91.9;98020;;;;
2023/02/03 21:49:52;;;;;;;10.1;5;;;;;;;2.8;91.9;98030;;;;
2023/02/03 21:59:52;;;;;;;10.1;5;;;;;;;2.8;91.8;98020;;;;
2023/02/03 22:09:52;;;;;;;10.8;5;;;;;;;2.8;91.7;98030;;;;
2023/02/03 22:20:52;;;;;;;10.8;5;;;;;;;2.8;91.8;98030;;;;
2023/02/03 22:31:52;;;;;;;10.8;5;;;;;;;2.8;91.8;98010;;;;
2023/02/03 22:41:52;;;;;;;15.6;7.3;;;;;;;2.7;91.8;98010;;;;
2023/02/03 22:52:53;;;;;;;15.6;7.3;;;;;;;2.7;91.8;98020;;;;
2023/02/03 23:03:52;;;;;;;11.1;5.9;;;;;;;2.7;92;98000;;;;
2023/02/03 23:13:51;;;;;;;11.1;5.9;;;;;;;2.8;92.2;98010;;;;
2023/02/03 23:24:52;;;;;;;11.1;5.9;;;;;;;2.9;92.3;98000;;;;
2023/02/03 23:35:56;;;;;;;12.7;6.5;;;;;;;2.9;92.7;97990;;;;
2023/02/03 23:44:52;;;;;;;12.7;6.5;;;;;;;3;92.8;97980;;;;
2023/02/03 23:55:52;;;;;;;12.7;6.5;;;;;;;3.2;92.8;97970;;;;
